Time;durP1;ratioP1;P1;durP2;ratioP2;P2;SDS_P1;SDS_P2;PMS_P1;PMS_P2;Temp;Humidity;BMP_temperature;BMP_pressure;BME280_temperature;BME280_humidity;BME280_pressure;Samples;Min_cycle;Max_cycle;Signal;HPM_P1;HPM_P2
2023/05/29 00:00:20;;;;;;;12.13;3.00;;;11.00;99.90;;;;;;6161599;23;20029;-63
2023/05/29 00:02:47;;;;;;;9.35;2.38;;;11.00;99.90;;;;;;6190679;23;20118;-62
2023/05/29 00:05:13;;;;;;;10.93;2.58;;;11.00;99.90;;;;;;6187337;23;20067;-63
2023/05/29 00:07:40;;;;;;;15.23;3.35;;;11.00;99.90;;;;;;6190433;23;20017;-63
2023/05/29 00:10:10;;;;;;;8.75;2.88;;;11.00;99.90;;;;;;6188432;23;20084;-62
2023/05/29 00:12:36;;;;;;;15.90;3.78;;;11.00;99.90;;;;;;6189801;23;20028;-63
2023/05/29 00:15:06;;;;;;;13.23;2.70;;;11.00;99.90;;;;;;6190822;23;20032;-63
2023/05/29 00:17:32;;;;;;;19.48;3.22;;;11.00;99.90;;;;;;6196343;23;20040;-63
2023/05/29 00:20:06;;;;;;;10.23;2.50;;;10.90;99.90;;;;;;6202538;23;20444;-63
2023/05/29 00:22:32;;;;;;;11.43;2.20;;;10.90;99.90;;;;;;6197330;23;20101;-63
2023/05/29 00:24:58;;;;;;;13.75;2.97;;;10.80;99.90;;;;;;6199764;23;20025;-63
2023/05/29 00:27:24;;;;;;;10.82;2.53;;;10.80;99.90;;;;;;6164208;23;20534;-64
2023/05/29 00:29:50;;;;;;;11.50;3.20;;;10.80;99.90;;;;;;6190505;23;20021;-63
2023/05/29 00:32:15;;;;;;;13.50;3.75;;;10.70;99.90;;;;;;6190130;23;20056;-63
2023/05/29 00:34:41;;;;;;;18.02;4.00;;;10.70;99.90;;;;;;6187922;23;20059;-62
2023/05/29 00:37:08;;;;;;;12.38;2.45;;;10.70;99.90;;;;;;6192134;23;20028;-63
2023/05/29 00:39:33;;;;;;;12.57;3.03;;;10.70;99.90;;;;;;6189758;23;20017;-62
2023/05/29 00:41:59;;;;;;;20.38;3.67;;;10.70;99.90;;;;;;6192384;23;20020;-63
2023/05/29 00:44:25;;;;;;;12.27;3.40;;;10.70;99.90;;;;;;6190441;23;20025;-63
2023/05/29 00:46:56;;;;;;;18.88;2.95;;;10.60;99.90;;;;;;6191759;23;20048;-64
2023/05/29 00:49:22;;;;;;;15.35;3.42;;;10.60;99.90;;;;;;6192354;23;20021;-63
2023/05/29 00:51:50;;;;;;;13.73;4.25;;;10.60;99.90;;;;;;6189925;23;20017;-63
2023/05/29 00:54:21;;;;;;;9.82;2.60;;;10.60;99.90;;;;;;6192602;23;20027;-63
2023/05/29 00:56:47;;;;;;;10.48;2.75;;;10.60;99.90;;;;;;6189742;23;20021;-63
2023/05/29 00:59:14;;;;;;;12.43;2.50;;;10.50;99.90;;;;;;6192275;23;20509;-63
2023/05/29 01:01:40;;;;;;;15.10;3.63;;;10.50;99.90;;;;;;6190926;23;20085;-63
2023/05/29 01:04:06;;;;;;;12.45;2.80;;;10.50;99.90;;;;;;6191248;23;20017;-63
2023/05/29 01:06:35;;;;;;;8.50;3.15;;;10.50;99.90;;;;;;6165462;23;20028;-62
2023/05/29 01:09:03;;;;;;;13.60;3.05;;;10.50;99.90;;;;;;6189860;23;20013;-62
2023/05/29 01:11:42;;;;;;;8.65;2.70;;;10.40;99.90;;;;;;6192351;23;20021;-63
2023/05/29 01:14:13;;;;;;;14.52;2.80;;;10.40;99.90;;;;;;6190065;23;20700;-63
2023/05/29 01:16:51;;;;;;;12.32;3.13;;;10.30;99.90;;;;;;6191396;23;20438;-63
2023/05/29 01:20:00;;;;;;;12.48;2.70;;;10.40;99.90;;;;;;6195357;23;20028;-63
2023/05/29 01:23:03;;;;;;;9.98;2.50;;;10.30;99.90;;;;;;6197499;23;20029;-63
2023/05/29 01:26:06;;;;;;;13.75;2.75;;;10.30;99.90;;;;;;6191958;23;20044;-62
2023/05/29 01:28:39;;;;;;;10.63;3.05;;;10.20;99.90;;;;;;6164319;23;20039;-63
2023/05/29 01:31:07;;;;;;;20.08;4.35;;;10.20;99.90;;;;;;6189190;23;20021;-63
2023/05/29 01:33:33;;;;;;;9.80;2.50;;;10.20;99.90;;;;;;6191517;23;20025;-63
2023/05/29 01:36:01;;;;;;;10.95;2.25;;;10.20;99.90;;;;;;6189824;23;20028;-63
2023/05/29 01:38:26;;;;;;;16.65;3.55;;;10.10;99.90;;;;;;6190765;23;20076;-63
2023/05/29 01:40:52;;;;;;;12.18;2.63;;;10.20;99.90;;;;;;6191737;23;20025;-63
2023/05/29 01:43:19;;;;;;;10.65;2.53;;;10.00;99.90;;;;;;6189377;23;20021;-63
2023/05/29 01:45:45;;;;;;;10.48;3.35;;;10.10;99.90;;;;;;6191494;23;20051;-63
2023/05/29 01:48:11;;;;;;;8.75;2.55;;;10.10;99.90;;;;;;6188607;23;20013;-63
2023/05/29 01:50:37;;;;;;;11.35;2.13;;;10.10;99.90;;;;;;6191346;23;20031;-63
2023/05/29 01:53:03;;;;;;;9.65;2.80;;;10.00;99.90;;;;;;6189625;23;20017;-63
2023/05/29 01:55:28;;;;;;;12.85;2.92;;;10.00;99.90;;;;;;6190355;23;20114;-63
2023/05/29 01:57:55;;;;;;;12.38;2.53;;;10.00;99.90;;;;;;6191329;23;20025;-62
2023/05/29 02:00:21;;;;;;;12.13;2.10;;;10.00;99.90;;;;;;6188712;23;20010;-63
2023/05/29 02:02:47;;;;;;;9.88;3.55;;;9.90;99.90;;;;;;6191676;23;20040;-63
2023/05/29 02:05:12;;;;;;;13.48;2.42;;;9.90;99.90;;;;;;6162209;23;20024;-62
2023/05/29 02:07:38;;;;;;;10.38;2.72;;;9.90;99.90;;;;;;6191255;23;20450;-63
2023/05/29 02:10:05;;;;;;;11.00;3.25;;;9.90;99.90;;;;;;6189416;23;20195;-63
2023/05/29 02:12:31;;;;;;;10.15;2.17;;;9.90;99.90;;;;;;6190647;23;20043;-63
2023/05/29 02:14:57;;;;;;;10.05;2.88;;;9.90;99.90;;;;;;6190577;23;20025;-63
2023/05/29 02:17:24;;;;;;;12.88;3.22;;;9.90;99.90;;;;;;6189701;23;20024;-62
2023/05/29 02:19:50;;;;;;;12.38;2.35;;;9.80;99.90;;;;;;6191449;23;20024;-63
2023/05/29 02:22:17;;;;;;;10.23;3.28;;;9.80;99.90;;;;;;6188410;23;20024;-62
2023/05/29 02:24:43;;;;;;;12.10;2.70;;;9.80;99.90;;;;;;6191045;23;20021;-63
2023/05/29 02:27:09;;;;;;;12.30;2.65;;;9.80;99.90;;;;;;6189032;23;20607;-63
2023/05/29 02:29:37;;;;;;;9.70;2.95;;;9.80;99.90;;;;;;6190364;23;20029;-62
2023/05/29 02:32:04;;;;;;;13.90;2.45;;;9.80;99.90;;;;;;6190512;23;20017;-62
2023/05/29 02:34:30;;;;;;;11.75;2.10;;;9.70;99.90;;;;;;6188966;23;20455;-63
2023/05/29 02:36:56;;;;;;;10.10;2.33;;;9.70;99.90;;;;;;6191294;23;20021;-63
2023/05/29 02:39:22;;;;;;;10.13;4.50;;;9.60;99.90;;;;;;6188718;23;20049;-63
2023/05/29 02:41:47;;;;;;;10.15;2.22;;;9.70;99.90;;;;;;6191335;23;20068;-63
2023/05/29 02:44:13;;;;;;;13.90;4.05;;;9.70;99.90;;;;;;6188777;23;20028;-63
2023/05/29 02:46:39;;;;;;;13.55;2.63;;;9.60;99.90;;;;;;6191039;23;20065;-63
2023/05/29 02:49:05;;;;;;;11.15;2.95;;;9.60;99.90;;;;;;6190502;23;20024;-64
2023/05/29 02:51:32;;;;;;;10.15;3.22;;;9.60;99.90;;;;;;6189566;23;20013;-63
2023/05/29 02:53:58;;;;;;;15.68;3.05;;;9.60;99.90;;;;;;6191225;23;20024;-63
2023/05/29 02:56:23;;;;;;;11.90;3.10;;;9.60;99.90;;;;;;6188388;23;20072;-64
2023/05/29 02:58:52;;;;;;;11.52;4.05;;;9.50;99.90;;;;;;6191079;23;20017;-62
2023/05/29 03:01:18;;;;;;;11.93;3.03;;;9.60;99.90;;;;;;6189036;23;20021;-62
2023/05/29 03:03:44;;;;;;;16.17;2.83;;;9.50;99.90;;;;;;6190689;23;20095;-63
2023/05/29 03:06:12;;;;;;;9.48;2.50;;;9.60;99.90;;;;;;6190211;23;20465;-63
2023/05/29 03:08:41;;;;;;;8.88;2.58;;;9.40;99.90;;;;;;6189572;23;20024;-63
2023/05/29 03:11:10;;;;;;;10.35;2.35;;;9.50;99.90;;;;;;6165040;23;20025;-63
2023/05/29 03:13:37;;;;;;;16.23;2.85;;;9.40;99.90;;;;;;6188847;23;20017;-63
2023/05/29 03:16:03;;;;;;;11.88;2.75;;;9.30;99.90;;;;;;6194459;23;20023;-63
2023/05/29 03:18:28;;;;;;;12.23;3.08;;;9.30;99.90;;;;;;6201426;23;20059;-63
2023/05/29 03:20:54;;;;;;;8.77;3.08;;;9.40;99.90;;;;;;6200643;23;20020;-63
2023/05/29 03:23:20;;;;;;;15.07;2.22;;;9.30;99.90;;;;;;6198027;23;20021;-63
2023/05/29 03:25:46;;;;;;;12.82;2.70;;;9.30;99.90;;;;;;6192716;23;20048;-63
2023/05/29 03:28:11;;;;;;;10.70;2.72;;;9.20;99.90;;;;;;6190855;23;20025;-63
2023/05/29 03:30:37;;;;;;;11.73;2.90;;;9.30;99.90;;;;;;6188241;23;20069;-63
2023/05/29 03:33:03;;;;;;;9.63;2.05;;;9.20;99.90;;;;;;6190427;23;20024;-63
2023/05/29 03:35:33;;;;;;;17.85;4.18;;;9.20;99.90;;;;;;6188296;23;20032;-63
2023/05/29 03:37:58;;;;;;;11.57;2.85;;;9.20;99.90;;;;;;6190041;23;20046;-63
2023/05/29 03:40:24;;;;;;;12.52;2.38;;;9.20;99.90;;;;;;6189330;23;20025;-63
2023/05/29 03:42:50;;;;;;;12.15;2.47;;;9.20;99.90;;;;;;6188838;23;20099;-62
2023/05/29 03:45:16;;;;;;;9.88;2.45;;;9.10;99.90;;;;;;6190627;23;20067;-63
2023/05/29 03:47:42;;;;;;;14.45;2.97;;;9.10;99.90;;;;;;6187646;23;20052;-63
2023/05/29 03:50:14;;;;;;;15.48;3.42;;;9.10;99.90;;;;;;6190422;23;20024;-62
2023/05/29 03:52:41;;;;;;;7.93;1.90;;;9.10;99.90;;;;;;6188008;23;20732;-62
2023/05/29 03:55:12;;;;;;;10.93;2.90;;;9.10;99.90;;;;;;6190007;23;20025;-63
2023/05/29 03:57:42;;;;;;;14.85;3.08;;;9.10;99.90;;;;;;6189691;23;20017;-63
2023/05/29 04:00:11;;;;;;;11.90;2.25;;;9.10;99.90;;;;;;6161599;23;20079;-63
2023/05/29 04:02:38;;;;;;;12.00;3.17;;;9.20;99.90;;;;;;6190277;23;20021;-63
2023/05/29 04:05:08;;;;;;;12.40;2.50;;;9.20;99.90;;;;;;6187591;23;20039;-63
2023/05/29 04:07:38;;;;;;;11.50;2.78;;;9.20;99.90;;;;;;6190398;23;20449;-62
2023/05/29 04:10:05;;;;;;;8.80;2.53;;;9.10;99.90;;;;;;6188467;23;20072;-62
2023/05/29 04:12:31;;;;;;;20.88;4.25;;;9.20;99.90;;;;;;6189403;23;20095;-63
2023/05/29 04:14:57;;;;;;;15.23;2.53;;;9.20;99.90;;;;;;6163361;23;20032;-63
2023/05/29 04:17:23;;;;;;;13.65;3.60;;;9.20;99.90;;;;;;6187885;23;20363;-62
2023/05/29 04:19:49;;;;;;;10.35;3.08;;;9.30;99.90;;;;;;6190142;23;20027;-65
2023/05/29 04:22:15;;;;;;;6.85;2.30;;;9.30;99.90;;;;;;6187565;23;20116;-63
2023/05/29 04:24:44;;;;;;;13.32;2.92;;;9.40;99.90;;;;;;6189955;23;20081;-63
2023/05/29 04:27:12;;;;;;;12.48;2.58;;;9.40;99.90;;;;;;6188109;23;20056;-63
2023/05/29 04:29:49;;;;;;;5.60;3.08;;;9.40;99.90;;;;;;6189708;23;20013;-62
2023/05/29 04:32:15;;;;;;;15.95;3.22;;;9.40;99.90;;;;;;6190049;23;20025;-62
2023/05/29 04:34:43;;;;;;;11.20;2.40;;;9.50;99.90;;;;;;6187567;23;20051;-63
2023/05/29 04:37:09;;;;;;;10.88;3.00;;;9.50;99.90;;;;;;6190261;23;20032;-62
2023/05/29 04:39:35;;;;;;;10.95;2.75;;;9.50;99.90;;;;;;6187337;23;20021;-64
2023/05/29 04:42:01;;;;;;;11.50;3.38;;;9.50;99.90;;;;;;6190538;23;20010;-62
2023/05/29 04:44:28;;;;;;;10.52;2.85;;;9.60;99.90;;;;;;6188789;23;20021;-63
2023/05/29 04:46:54;;;;;;;9.45;2.50;;;9.70;99.90;;;;;;6189618;23;20029;-62
2023/05/29 04:49:21;;;;;;;11.30;2.88;;;9.80;99.90;;;;;;6190467;23;20071;-63
2023/05/29 04:51:47;;;;;;;11.20;2.22;;;9.80;99.90;;;;;;6188241;23;20020;-62
2023/05/29 04:54:13;;;;;;;12.73;2.67;;;9.80;99.90;;;;;;6190201;23;20024;-63
2023/05/29 04:56:40;;;;;;;13.35;3.58;;;9.90;99.90;;;;;;6187817;23;20076;-63
2023/05/29 04:59:09;;;;;;;11.68;2.40;;;10.10;99.90;;;;;;6190535;23;20055;-62
2023/05/29 05:01:34;;;;;;;12.35;4.05;;;10.20;99.90;;;;;;6188879;23;21292;-63
2023/05/29 05:04:00;;;;;;;15.32;2.58;;;10.30;99.90;;;;;;6163309;23;20044;-63
2023/05/29 05:06:26;;;;;;;11.63;2.45;;;10.40;99.90;;;;;;6163909;23;20021;-63
2023/05/29 05:08:53;;;;;;;11.60;2.75;;;10.60;99.90;;;;;;6187984;23;20025;-63
2023/05/29 05:11:20;;;;;;;11.75;2.97;;;10.60;99.90;;;;;;6190911;23;20021;-63
2023/05/29 05:13:46;;;;;;;14.18;2.33;;;10.60;99.90;;;;;;6189547;23;20695;-63
2023/05/29 05:16:12;;;;;;;11.52;2.53;;;10.70;99.90;;;;;;6192514;23;20021;-63
2023/05/29 05:18:39;;;;;;;8.48;2.40;;;10.90;99.90;;;;;;6191526;23;20072;-63
2023/05/29 05:21:05;;;;;;;8.52;2.42;;;11.00;99.90;;;;;;6200339;23;20020;-63
2023/05/29 05:23:31;;;;;;;9.38;2.58;;;11.10;99.90;;;;;;6199449;23;20092;-63
2023/05/29 05:25:57;;;;;;;9.90;2.20;;;11.20;99.90;;;;;;6199788;23;20021;-63
2023/05/29 05:28:23;;;;;;;10.48;2.40;;;11.20;99.90;;;;;;6202342;23;20048;-63
2023/05/29 05:30:49;;;;;;;8.07;3.28;;;11.40;99.90;;;;;;6199474;23;20023;-62
2023/05/29 05:33:15;;;;;;;12.95;2.97;;;11.50;99.90;;;;;;6193596;23;20029;-63
2023/05/29 05:35:40;;;;;;;15.02;2.80;;;11.50;99.90;;;;;;6190233;23;20021;-63
2023/05/29 05:38:06;;;;;;;10.90;2.47;;;11.60;99.90;;;;;;6191400;23;20036;-63
2023/05/29 05:40:32;;;;;;;12.07;2.53;;;11.60;99.90;;;;;;6191911;23;20021;-63
2023/05/29 05:42:58;;;;;;;8.70;2.40;;;11.70;99.90;;;;;;6190261;23;20068;-63
2023/05/29 05:45:24;;;;;;;10.15;2.20;;;11.70;99.90;;;;;;6192149;23;20017;-63
2023/05/29 05:47:50;;;;;;;16.27;3.65;;;11.80;99.90;;;;;;6189533;23;20049;-63
2023/05/29 05:50:15;;;;;;;9.27;2.45;;;11.90;99.90;;;;;;6191869;23;20019;-63
2023/05/29 05:52:41;;;;;;;6.72;2.33;;;12.00;99.90;;;;;;6189385;23;20054;-63
2023/05/29 05:55:07;;;;;;;11.57;2.20;;;12.00;99.90;;;;;;6191368;23;20025;-63
2023/05/29 05:57:33;;;;;;;8.50;2.33;;;12.00;99.90;;;;;;6190958;23;20025;-63
2023/05/29 06:00:06;;;;;;;11.23;2.42;;;12.10;99.90;;;;;;6190004;23;20013;-63
2023/05/29 06:02:32;;;;;;;9.98;2.38;;;12.20;99.90;;;;;;6192067;23;20020;-64
2023/05/29 06:04:58;;;;;;;10.73;1.83;;;12.30;99.90;;;;;;6189094;23;20032;-63
2023/05/29 06:07:23;;;;;;;8.18;2.15;;;12.40;99.90;;;;;;6191629;23;20029;-63
2023/05/29 06:09:49;;;;;;;14.38;4.00;;;12.30;99.90;;;;;;6189641;23;20032;-63
2023/05/29 06:12:15;;;;;;;11.15;2.67;;;12.40;99.90;;;;;;6199004;23;20031;-63
2023/05/29 06:14:41;;;;;;;7.15;2.40;;;12.40;99.90;;;;;;6201594;23;20044;-63
2023/05/29 06:17:07;;;;;;;6.57;2.05;;;12.50;99.90;;;;;;6198743;23;20036;-63
2023/05/29 06:19:32;;;;;;;11.45;3.03;;;12.50;99.90;;;;;;6199834;23;20021;-62
2023/05/29 06:21:58;;;;;;;8.98;2.83;;;12.60;99.90;;;;;;6192916;23;20024;-63
2023/05/29 06:24:24;;;;;;;11.23;2.10;;;12.60;99.90;;;;;;6192089;23;20028;-63
2023/05/29 06:26:50;;;;;;;13.70;2.40;;;12.70;99.90;;;;;;6189695;23;20028;-62
2023/05/29 06:29:16;;;;;;;10.30;2.10;;;12.60;99.90;;;;;;6189953;23;20021;-63
2023/05/29 06:31:43;;;;;;;12.63;3.03;;;12.80;99.90;;;;;;6189010;23;20029;-63
2023/05/29 06:34:09;;;;;;;9.70;2.25;;;12.80;99.90;;;;;;6188597;23;20091;-63
2023/05/29 06:36:35;;;;;;;9.05;2.80;;;12.80;99.90;;;;;;6190216;23;20025;-63
2023/05/29 06:39:01;;;;;;;10.98;2.88;;;13.00;99.90;;;;;;6161670;23;20024;-64
2023/05/29 06:41:26;;;;;;;10.57;2.38;;;12.90;99.90;;;;;;6190668;23;20021;-63
2023/05/29 06:43:52;;;;;;;13.45;2.28;;;13.00;99.90;;;;;;6188486;23;20169;-63
2023/05/29 06:46:18;;;;;;;10.57;2.20;;;13.00;99.90;;;;;;6190209;23;20099;-62
2023/05/29 06:48:43;;;;;;;7.68;2.50;;;12.90;99.90;;;;;;6189199;23;20069;-63
2023/05/29 06:51:11;;;;;;;8.85;2.45;;;12.90;99.90;;;;;;6189887;23;20466;-63
2023/05/29 06:53:40;;;;;;;14.68;3.15;;;12.90;99.90;;;;;;6191152;23;20028;-62
2023/05/29 06:56:06;;;;;;;17.13;2.60;;;12.90;99.90;;;;;;6188573;23;20092;-63
2023/05/29 06:58:35;;;;;;;10.32;3.08;;;13.00;99.90;;;;;;6191075;23;20099;-64
2023/05/29 07:01:01;;;;;;;12.88;2.97;;;13.10;99.90;;;;;;6188275;23;20036;-62
2023/05/29 07:03:27;;;;;;;15.27;2.53;;;13.10;99.90;;;;;;6190715;23;20065;-62
2023/05/29 07:05:53;;;;;;;10.20;2.60;;;13.10;99.90;;;;;;6189090;23;20017;-63
2023/05/29 07:08:19;;;;;;;14.43;2.45;;;13.20;99.90;;;;;;6190060;23;20024;-62
2023/05/29 07:10:45;;;;;;;9.90;3.25;;;13.20;99.90;;;;;;6190804;23;20021;-62
2023/05/29 07:13:15;;;;;;;10.18;2.85;;;13.20;99.90;;;;;;6188260;23;20604;-62
2023/05/29 07:15:41;;;;;;;12.98;2.80;;;13.30;99.90;;;;;;6190825;23;20017;-62
2023/05/29 07:18:06;;;;;;;12.85;3.53;;;13.30;99.90;;;;;;6187710;23;20024;-62
2023/05/29 07:20:32;;;;;;;10.25;2.15;;;13.40;99.90;;;;;;6190695;23;20028;-63
2023/05/29 07:22:58;;;;;;;10.30;2.50;;;13.30;99.90;;;;;;6188895;23;20085;-62
2023/05/29 07:25:24;;;;;;;17.13;3.03;;;13.40;99.90;;;;;;6189641;23;20017;-63
2023/05/29 07:27:52;;;;;;;19.23;4.20;;;13.40;99.90;;;;;;6190834;23;20045;-63
2023/05/29 07:30:18;;;;;;;18.67;3.47;;;13.60;99.90;;;;;;6188529;23;20399;-63
2023/05/29 07:32:44;;;;;;;8.48;2.35;;;13.50;99.90;;;;;;6190654;23;20025;-62
2023/05/29 07:35:10;;;;;;;7.32;2.42;;;13.50;99.90;;;;;;6187587;23;20113;-63
2023/05/29 07:37:35;;;;;;;14.35;2.70;;;13.60;99.90;;;;;;6190566;23;20020;-64
2023/05/29 07:40:05;;;;;;;10.50;2.55;;;13.60;99.90;;;;;;6188751;23;20052;-64
2023/05/29 07:42:32;;;;;;;9.35;3.45;;;13.60;99.90;;;;;;6163188;23;20032;-65
2023/05/29 07:44:58;;;;;;;11.32;2.35;;;13.60;99.90;;;;;;6190280;23;20017;-63
2023/05/29 07:47:24;;;;;;;13.13;2.55;;;13.70;99.90;;;;;;6187583;23;20017;-64
2023/05/29 07:49:50;;;;;;;11.77;2.67;;;13.60;99.90;;;;;;6190568;23;20027;-63
2023/05/29 07:52:15;;;;;;;13.43;3.20;;;13.70;99.90;;;;;;6188280;23;20021;-62
2023/05/29 07:54:41;;;;;;;8.30;3.65;;;13.70;99.90;;;;;;6190539;23;20025;-63
2023/05/29 07:57:09;;;;;;;10.95;2.97;;;13.80;99.90;;;;;;6188832;23;20021;-64
2023/05/29 07:59:41;;;;;;;16.92;3.97;;;13.80;99.90;;;;;;6190033;23;20036;-63
2023/05/29 08:02:07;;;;;;;18.10;3.70;;;13.80;99.90;;;;;;6190758;23;20025;-64
2023/05/29 08:04:33;;;;;;;10.73;2.65;;;13.90;99.90;;;;;;6187680;23;20269;-62
2023/05/29 08:07:01;;;;;;;12.77;3.17;;;13.90;99.90;;;;;;6190986;23;20020;-63
2023/05/29 08:09:26;;;;;;;11.48;2.67;;;14.00;99.90;;;;;;6187754;23;20157;-63
2023/05/29 08:11:52;;;;;;;11.05;2.28;;;14.00;99.90;;;;;;6190639;23;20089;-62
2023/05/29 08:14:18;;;;;;;15.57;3.13;;;13.80;99.90;;;;;;6188289;23;20017;-64
2023/05/29 08:16:44;;;;;;;10.15;2.72;;;13.80;99.90;;;;;;6189576;23;20076;-63
2023/05/29 08:19:10;;;;;;;20.08;3.40;;;13.90;99.90;;;;;;6190006;23;20109;-63
2023/05/29 08:21:37;;;;;;;15.38;3.15;;;14.00;99.90;;;;;;6188181;23;20025;-62
2023/05/29 08:24:06;;;;;;;13.20;3.92;;;14.00;99.90;;;;;;6189767;23;20017;-63
2023/05/29 08:26:32;;;;;;;12.45;2.78;;;14.00;99.90;;;;;;6160759;23;20048;-63
2023/05/29 08:28:58;;;;;;;11.30;2.80;;;14.20;99.90;;;;;;6189854;23;20032;-62
2023/05/29 08:31:25;;;;;;;13.07;2.53;;;14.40;99.90;;;;;;6188002;23;20023;-63
2023/05/29 08:33:51;;;;;;;10.80;2.47;;;14.30;99.90;;;;;;6189577;23;20017;-63
2023/05/29 08:36:17;;;;;;;12.65;3.47;;;14.40;99.90;;;;;;6189806;23;20080;-63
2023/05/29 08:38:43;;;;;;;16.38;3.30;;;14.40;99.90;;;;;;6187979;23;20092;-63
2023/05/29 08:41:15;;;;;;;14.27;2.63;;;14.60;99.90;;;;;;6189828;23;20024;-63
2023/05/29 08:43:42;;;;;;;7.93;2.63;;;14.70;99.90;;;;;;6186874;23;20024;-64
2023/05/29 08:46:09;;;;;;;12.82;3.03;;;14.70;99.90;;;;;;6163054;23;20052;-63
2023/05/29 08:48:39;;;;;;;14.55;2.75;;;14.70;99.90;;;;;;6188107;23;20191;-63
2023/05/29 08:51:07;;;;;;;12.93;2.72;;;14.70;99.90;;;;;;6189117;23;20052;-63
2023/05/29 08:53:33;;;;;;;14.10;2.88;;;14.70;99.90;;;;;;6190176;23;20091;-65
2023/05/29 08:56:01;;;;;;;12.88;3.47;;;14.90;99.90;;;;;;6188176;23;20021;-63
2023/05/29 08:58:27;;;;;;;10.25;3.38;;;14.90;99.90;;;;;;6191918;23;20069;-63
2023/05/29 09:00:53;;;;;;;8.23;2.13;;;14.90;99.90;;;;;;6189078;23;20021;-62
2023/05/29 09:03:20;;;;;;;9.57;2.15;;;14.90;99.90;;;;;;6195220;23;20017;-63
2023/05/29 09:05:46;;;;;;;7.35;2.08;;;14.90;99.90;;;;;;6195455;23;20013;-64
2023/05/29 09:08:12;;;;;;;19.00;2.88;;;15.00;99.90;;;;;;6173283;23;20039;-63
2023/05/29 09:10:45;;;;;;;14.55;2.83;;;14.90;99.90;;;;;;6205300;23;20023;-64
2023/05/29 09:13:13;;;;;;;12.05;2.53;;;15.00;99.90;;;;;;6198782;23;20028;-63
2023/05/29 09:15:42;;;;;;;12.05;2.67;;;14.90;99.90;;;;;;6193837;23;20065;-63
2023/05/29 09:18:08;;;;;;;11.48;2.25;;;14.90;99.90;;;;;;6191121;23;20025;-64
2023/05/29 09:20:34;;;;;;;13.70;3.28;;;14.90;99.90;;;;;;6192894;23;20096;-63
2023/05/29 09:23:02;;;;;;;11.52;3.13;;;14.90;99.90;;;;;;6190433;23;20526;-63
2023/05/29 09:25:33;;;;;;;11.23;3.03;;;15.00;99.90;;;;;;6190700;23;20021;-62
2023/05/29 09:28:07;;;;;;;12.43;2.80;;;15.00;99.90;;;;;;6191972;23;20017;-63
2023/05/29 09:30:40;;;;;;;14.10;3.35;;;14.90;99.90;;;;;;6189442;23;20028;-64
2023/05/29 09:33:08;;;;;;;8.65;2.58;;;15.00;99.90;;;;;;6191977;23;20021;-63
2023/05/29 09:35:39;;;;;;;18.38;2.70;;;15.00;99.90;;;;;;6189598;23;20021;-63
2023/05/29 09:38:09;;;;;;;12.52;2.80;;;15.00;99.90;;;;;;6191597;23;20075;-64
2023/05/29 09:40:37;;;;;;;12.13;3.25;;;15.00;99.90;;;;;;6191780;23;20029;-63
2023/05/29 09:43:17;;;;;;;12.57;3.28;;;15.10;99.90;;;;;;6189554;23;20028;-64
2023/05/29 09:45:49;;;;;;;9.90;2.88;;;15.10;99.90;;;;;;6191754;23;20028;-64
2023/05/29 09:48:21;;;;;;;;;;;15.30;99.90;;;;;;6190060;23;20056;-64
2023/05/29 09:50:49;;;;;;;12.52;2.45;;;15.40;99.90;;;;;;6191678;23;19947;-63
2023/05/29 09:53:27;;;;;;;10.85;2.33;;;15.30;99.90;;;;;;6190820;23;20060;-64
2023/05/29 09:55:54;;;;;;;9.65;2.35;;;15.40;99.90;;;;;;6162733;23;20029;-64
2023/05/29 09:58:23;;;;;;;11.88;2.63;;;15.30;99.90;;;;;;6191634;23;20072;-63
2023/05/29 10:00:51;;;;;;;10.98;2.63;;;15.30;99.90;;;;;;6188994;23;20016;-63
2023/05/29 10:03:17;;;;;;;10.48;2.22;;;15.30;99.90;;;;;;6191479;23;20667;-63
2023/05/29 10:05:48;;;;;;;9.93;2.35;;;15.40;99.90;;;;;;6190017;23;20021;-64
2023/05/29 10:08:17;;;;;;;9.48;2.30;;;15.60;99.90;;;;;;6190168;23;20021;-64
2023/05/29 10:10:49;;;;;;;8.25;2.15;;;15.70;99.90;;;;;;6191643;23;20028;-63
2023/05/29 10:13:16;;;;;;;10.02;2.47;;;15.60;99.90;;;;;;6188666;23;20402;-63
2023/05/29 10:15:45;;;;;;;8.13;1.98;;;15.50;99.90;;;;;;6165283;23;20130;-64
2023/05/29 10:18:21;;;;;;;9.10;2.85;;;15.40;99.90;;;;;;6189268;23;20126;-63
2023/05/29 10:20:55;;;;;;;10.68;2.72;;;15.40;99.90;;;;;;6191486;23;20016;-63
2023/05/29 10:23:23;;;;;;;4.63;2.15;;;15.40;99.90;;;;;;6191276;23;20046;-63
2023/05/29 10:25:53;;;;;;;16.73;3.13;;;15.50;99.90;;;;;;6189072;23;20025;-64
2023/05/29 10:28:23;;;;;;;11.63;2.70;;;15.50;99.90;;;;;;6191538;23;20080;-63
2023/05/29 10:31:04;;;;;;;11.60;2.72;;;15.50;99.90;;;;;;6188281;23;20021;-63
2023/05/29 10:34:26;;;;;;;12.30;2.50;;;15.60;99.90;;;;;;6191121;23;20028;-63
2023/05/29 10:37:24;;;;;;;11.85;2.30;;;15.50;99.90;;;;;;6070531;23;20788;-64
2023/05/29 10:39:52;;;;;;;14.02;3.10;;;15.60;99.90;;;;;;6063445;23;20026;-63
2023/05/29 10:42:41;;;;;;;12.38;2.70;;;15.60;99.90;;;;;;6168894;23;20088;-65
2023/05/29 10:45:07;;;;;;;13.00;3.92;;;15.60;99.90;;;;;;6191151;23;20025;-65
2023/05/29 10:47:33;;;;;;;11.25;2.35;;;15.60;99.90;;;;;;6188390;23;20017;-63
2023/05/29 10:50:03;;;;;;;11.07;2.40;;;15.60;99.90;;;;;;6191061;23;20028;-63
2023/05/29 10:52:32;;;;;;;11.57;2.35;;;15.60;99.90;;;;;;6188248;23;20023;-63
2023/05/29 10:54:58;;;;;;;8.52;2.10;;;15.60;99.90;;;;;;6190459;23;20089;-63
2023/05/29 10:57:26;;;;;;;12.93;3.05;;;15.70;99.90;;;;;;6189418;23;20024;-63
2023/05/29 11:00:07;;;;;;;17.35;2.40;;;15.80;99.90;;;;;;6189478;23;20674;-64
2023/05/29 11:02:37;;;;;;;13.93;3.50;;;15.80;99.90;;;;;;6190085;23;20024;-64
2023/05/29 11:05:24;;;;;;;12.32;3.40;;;15.80;99.90;;;;;;6188329;23;20021;-64
2023/05/29 11:08:00;;;;;;;11.48;2.33;;;15.80;99.90;;;;;;6190504;23;20040;-64
2023/05/29 11:10:55;;;;;;;10.93;2.63;;;15.80;99.90;;;;;;6189976;23;20127;-63
2023/05/29 11:13:36;;;;;;;11.18;2.50;;;15.80;99.90;;;;;;6188022;23;20029;-64
2023/05/29 11:16:09;;;;;;;15.98;2.47;;;15.90;99.90;;;;;;6191628;23;20048;-63
2023/05/29 11:18:44;;;;;;;11.15;2.05;;;15.90;99.90;;;;;;6188823;23;20025;-64
2023/05/29 11:21:24;;;;;;;13.48;2.78;;;15.80;99.90;;;;;;6189394;23;20056;-63
2023/05/29 11:23:52;;;;;;;11.40;2.53;;;15.90;99.90;;;;;;6190389;23;20088;-64
2023/05/29 11:26:20;;;;;;;11.63;2.88;;;15.90;99.90;;;;;;6187599;23;20017;-64
2023/05/29 11:28:46;;;;;;;14.18;2.35;;;16.00;99.90;;;;;;6190477;23;20092;-64
2023/05/29 11:31:13;;;;;;;7.07;1.77;;;16.00;99.90;;;;;;6188098;23;20025;-64
2023/05/29 11:33:43;;;;;;;12.60;2.55;;;15.90;99.90;;;;;;6189562;23;20032;-63
2023/05/29 11:36:10;;;;;;;9.52;2.15;;;16.00;99.90;;;;;;6189458;23;20029;-63
2023/05/29 11:38:36;;;;;;;10.85;2.30;;;16.20;99.90;;;;;;6188231;23;20060;-63
2023/05/29 11:41:03;;;;;;;14.00;2.22;;;16.10;99.90;;;;;;6190158;23;20501;-63
2023/05/29 11:43:32;;;;;;;10.15;2.45;;;16.10;99.90;;;;;;6187872;23;20028;-63
2023/05/29 11:45:57;;;;;;;9.77;2.20;;;16.00;99.90;;;;;;6190241;23;20458;-63
2023/05/29 11:48:23;;;;;;;9.95;1.98;;;15.90;99.90;;;;;;6188053;23;20035;-64
2023/05/29 11:50:49;;;;;;;11.13;2.10;;;15.90;99.90;;;;;;6189790;23;20053;-64
2023/05/29 11:53:15;;;;;;;9.43;2.85;;;15.90;99.90;;;;;;6189676;23;20024;-63
2023/05/29 11:55:41;;;;;;;6.38;2.30;;;15.90;99.90;;;;;;6188272;23;20044;-64
2023/05/29 11:58:07;;;;;;;11.80;3.55;;;15.90;99.90;;;;;;6190341;23;20032;-63
2023/05/29 12:00:40;;;;;;;8.70;2.58;;;15.80;99.90;;;;;;6188187;23;20021;-64
2023/05/29 12:03:08;;;;;;;12.35;2.83;;;15.90;99.90;;;;;;6192194;23;20021;-66
2023/05/29 12:05:50;;;;;;;11.77;2.00;;;16.00;99.90;;;;;;6200662;23;20021;-64
2023/05/29 12:08:16;;;;;;;11.52;2.25;;;16.10;99.90;;;;;;6198967;23;20405;-64
2023/05/29 12:10:48;;;;;;;8.07;2.20;;;16.20;99.90;;;;;;6198482;23;20074;-64
2023/05/29 12:13:16;;;;;;;9.63;2.17;;;16.20;99.90;;;;;;6192643;23;20489;-63
2023/05/29 12:15:43;;;;;;;8.90;2.30;;;16.20;99.90;;;;;;6191802;23;20021;-64
2023/05/29 12:18:11;;;;;;;9.50;2.55;;;16.40;99.90;;;;;;6187557;23;20076;-63
2023/05/29 12:20:37;;;;;;;7.22;2.67;;;16.40;99.90;;;;;;6189513;23;20017;-64
2023/05/29 12:23:03;;;;;;;13.38;1.90;;;16.40;99.90;;;;;;6188437;23;20021;-64
2023/05/29 12:25:35;;;;;;;8.18;1.90;;;16.30;99.90;;;;;;6187314;23;20139;-63
2023/05/29 12:28:00;;;;;;;9.75;2.28;;;16.30;99.90;;;;;;6190056;23;20017;-63
2023/05/29 12:30:26;;;;;;;8.13;1.63;;;16.20;99.90;;;;;;6187161;23;20028;-64
2023/05/29 12:32:53;;;;;;;8.75;2.10;;;16.30;99.90;;;;;;6191874;23;20072;-63
2023/05/29 12:35:27;;;;;;;6.25;2.13;;;16.40;99.90;;;;;;6189521;23;20028;-64
2023/05/29 12:37:58;;;;;;;9.10;2.20;;;16.40;99.90;;;;;;6191237;23;20390;-63
2023/05/29 12:40:28;;;;;;;7.45;2.78;;;16.60;99.90;;;;;;6191634;23;20025;-64
2023/05/29 12:43:00;;;;;;;13.30;2.20;;;16.70;99.90;;;;;;6189717;23;20067;-64
2023/05/29 12:45:28;;;;;;;17.58;3.03;;;16.50;99.90;;;;;;6192278;23;20488;-66
2023/05/29 12:47:54;;;;;;;14.43;2.80;;;16.60;99.90;;;;;;6189601;23;20025;-64